KNQI/NQI METAR and TAF weather

Enter ICAO airport designator
Station Type Date Time Source
KNQI METAR 2022/11/27 08:56 UTC NOAA

KNQI 270856Z AUTO 20007KT 10SM CLR 10/10 A2992 RMK AO2 SLP127 T01000100 58004 $


Station Type Date Time Source
KNQI Decoded METAR 2022/11/27 08:56 UTC NOAA

KINGSVILLE NAS, TX, United States (KNQI) 27-50N 097-81W 15M
Nov 27, 2022 - 03:56 AM EST / 2022.11.27 0856 UTC
Wind: from the SSW (200 degrees) at 8 MPH (7 KT):0
Visibility: 10 mile(s):0
Sky conditions: clear
Temperature: 50.0 F (10.0 C)
Dew Point: 50.0 F (10.0 C)
Relative Humidity: 100%
Pressure (altimeter): 29.92 in. Hg (1013 hPa)
Pressure tendency: 0.01 inches (0.4 hPa) lower than three hours ago
ob: KNQI 270856Z AUTO 20007KT 10SM CLR 10/10 A2992 RMK AO2 SLP127 T01000100 58004
cycle: 9

Station Type Date Time Source
KNQI TAF 2022/11/25 23:51 UTC NOAA

TAF TAF KNQI 2523/2623 02011KT 9000 -RA BR VCTS FEW008CB OVC014 QNH2992INS
TEMPO 2523/2603 VRB15G30KT 2400 TSRA BR BKN005CB OVC010
FM260300 33012KT 9000 -RA BR SCT009 BKN014 OVC025 510083 QNH2994INS
TEMPO 2603/2609 29015G25KT 3200 SHRA BR OVC005
BECMG 2612/2614 30020G27KT 9999 NSW SCT020 BKN150 BKN250 510004 QNH3006INS
FM262200 28010KT 9999 FEW250 500000 QNH3000INS LAST TAF NO
AMDS AFT 2523 NEXT 2807 T11/2612Z T21/2620Z FN20042

Example: see airport list